Time;durP1;ratioP1;P1;durP2;ratioP2;P2;SDS_P1;SDS_P2;PMS_P1;PMS_P2;Temp;Humidity;BMP_temperature;BMP_pressure;BME280_temperature;BME280_humidity;BME280_pressure;Samples;Min_cycle;Max_cycle;Signal;HPM_P1;HPM_P2
2022/03/14 00:00:18;;;;;;;6.87;4.77;;;;;;;;;;5052089;28;20241;-75
2022/03/14 00:02:43;;;;;;;4.97;4.47;;;;;;;;;;5052350;28;20226;-75
2022/03/14 00:05:10;;;;;;;4.83;4.30;;;;;;;;;;5053161;28;20214;-73
2022/03/14 00:07:38;;;;;;;5.83;4.27;;;;;;;;;;5047944;28;20234;-74
2022/03/14 00:10:05;;;;;;;5.57;4.23;;;;;;;;;;5036436;28;20274;-73
2022/03/14 00:12:33;;;;;;;5.27;4.60;;;;;;;;;;5051332;28;20222;-75
2022/03/14 00:14:59;;;;;;;6.70;4.60;;;;;;;;;;5067247;28;20310;-74
2022/03/14 00:17:28;;;;;;;5.10;4.60;;;;;;;;;;5050229;28;20226;-74
2022/03/14 00:19:59;;;;;;;7.27;4.77;;;;;;;;;;5051136;28;20272;-74
2022/03/14 00:22:26;;;;;;;7.37;4.63;;;;;;;;;;5045410;28;20229;-74
2022/03/14 00:24:54;;;;;;;5.87;4.60;;;;;;;;;;5067411;28;20243;-74
2022/03/14 00:27:19;;;;;;;5.80;4.60;;;;;;;;;;5050333;28;20318;-74
2022/03/14 00:29:48;;;;;;;5.50;4.30;;;;;;;;;;5018539;28;20305;-74
2022/03/14 00:32:14;;;;;;;5.97;4.43;;;;;;;;;;5053321;28;20690;-75
2022/03/14 00:34:41;;;;;;;5.33;4.50;;;;;;;;;;5052555;28;20722;-74
2022/03/14 00:37:06;;;;;;;6.23;4.20;;;;;;;;;;5050548;28;20223;-74
2022/03/14 00:39:36;;;;;;;6.23;4.27;;;;;;;;;;5037702;28;20301;-73
2022/03/14 00:42:04;;;;;;;6.23;4.33;;;;;;;;;;5020175;28;20223;-75
2022/03/14 00:44:30;;;;;;;5.03;4.17;;;;;;;;;;5068739;28;20218;-75
2022/03/14 00:46:58;;;;;;;5.17;4.40;;;;;;;;;;5032086;28;20229;-75
2022/03/14 00:49:27;;;;;;;6.23;4.30;;;;;;;;;;5068213;28;20214;-74
2022/03/14 00:51:52;;;;;;;6.17;4.43;;;;;;;;;;5066146;28;20700;-73
2022/03/14 00:54:20;;;;;;;7.40;4.50;;;;;;;;;;5067096;28;20235;-75
2022/03/14 00:56:46;;;;;;;6.73;4.10;;;;;;;;;;5051145;28;20222;-74
2022/03/14 00:59:14;;;;;;;5.10;4.30;;;;;;;;;;5068652;28;20230;-74
2022/03/14 01:01:39;;;;;;;5.60;4.50;;;;;;;;;;5074291;28;20229;-74
2022/03/14 01:04:05;;;;;;;5.30;4.23;;;;;;;;;;5036155;28;20219;-73
2022/03/14 01:06:30;;;;;;;5.57;4.30;;;;;;;;;;5066720;28;20293;-74
2022/03/14 01:08:56;;;;;;;6.60;4.40;;;;;;;;;;5054348;28;20594;-75
2022/03/14 01:11:23;;;;;;;7.10;4.77;;;;;;;;;;5071249;28;20240;-74
2022/03/14 01:13:49;;;;;;;6.23;4.87;;;;;;;;;;5066990;28;20310;-74
2022/03/14 01:16:15;;;;;;;10.37;4.93;;;;;;;;;;5066658;28;20322;-74
2022/03/14 01:18:40;;;;;;;6.00;4.30;;;;;;;;;;5067520;28;20227;-74
2022/03/14 01:21:09;;;;;;;8.03;4.30;;;;;;;;;;5069038;28;20301;-75
2022/03/14 01:23:41;;;;;;;5.93;4.60;;;;;;;;;;5047941;28;20322;-74
2022/03/14 01:26:08;;;;;;;5.80;4.53;;;;;;;;;;5053645;28;20223;-75
2022/03/14 01:28:36;;;;;;;6.23;4.50;;;;;;;;;;5022665;28;20279;-75
2022/03/14 01:31:02;;;;;;;5.80;4.50;;;;;;;;;;5070242;28;20238;-75
2022/03/14 01:33:30;;;;;;;6.20;4.30;;;;;;;;;;5056975;28;20321;-74
2022/03/14 01:35:58;;;;;;;6.83;4.57;;;;;;;;;;5070597;28;20433;-74
2022/03/14 01:38:28;;;;;;;5.43;4.70;;;;;;;;;;5070478;28;20226;-73
2022/03/14 01:40:55;;;;;;;5.60;4.47;;;;;;;;;;5060492;28;20744;-73
2022/03/14 01:43:25;;;;;;;6.70;4.63;;;;;;;;;;5052393;28;20688;-74
2022/03/14 01:45:59;;;;;;;7.00;4.60;;;;;;;;;;5022190;28;20223;-75
2022/03/14 01:48:28;;;;;;;5.47;4.77;;;;;;;;;;5021498;28;20226;-74
2022/03/14 01:50:54;;;;;;;6.20;4.63;;;;;;;;;;5069866;28;20234;-75
2022/03/14 01:53:22;;;;;;;7.30;4.77;;;;;;;;;;5053246;28;20223;-74
2022/03/14 01:55:47;;;;;;;5.67;4.50;;;;;;;;;;5053957;28;20280;-74
2022/03/14 01:58:13;;;;;;;7.97;4.87;;;;;;;;;;5056802;28;20246;-74
2022/03/14 02:00:39;;;;;;;7.07;4.60;;;;;;;;;;5039088;28;20257;-75
2022/03/14 02:03:07;;;;;;;5.43;4.37;;;;;;;;;;5082534;28;20218;-74
2022/03/14 02:05:37;;;;;;;6.27;4.73;;;;;;;;;;5076702;28;20309;-75
2022/03/14 02:08:05;;;;;;;6.17;4.73;;;;;;;;;;5061880;28;20226;-73
2022/03/14 02:10:31;;;;;;;7.93;4.50;;;;;;;;;;5022883;28;20215;-73
2022/03/14 02:12:59;;;;;;;7.37;4.80;;;;;;;;;;5070464;28;20292;-74
2022/03/14 02:15:25;;;;;;;6.13;4.60;;;;;;;;;;5068705;28;20238;-74
2022/03/14 02:17:50;;;;;;;7.00;4.80;;;;;;;;;;5069691;28;20219;-75
2022/03/14 02:20:16;;;;;;;8.80;4.70;;;;;;;;;;5036309;28;20226;-75
2022/03/14 02:22:41;;;;;;;6.77;4.30;;;;;;;;;;5070391;28;20283;-74
2022/03/14 02:25:10;;;;;;;6.50;4.50;;;;;;;;;;5069517;28;20334;-74
2022/03/14 02:27:41;;;;;;;7.03;4.83;;;;;;;;;;5061980;28;20226;-74
2022/03/14 02:30:10;;;;;;;6.77;4.83;;;;;;;;;;5050895;28;20235;-74
2022/03/14 02:32:41;;;;;;;6.60;4.93;;;;;;;;;;5076655;28;20245;-73
2022/03/14 02:35:08;;;;;;;6.67;4.57;;;;;;;;;;5053021;28;20643;-74
2022/03/14 02:37:36;;;;;;;5.97;4.50;;;;;;;;;;5050575;28;20235;-74
2022/03/14 02:40:02;;;;;;;9.33;5.27;;;;;;;;;;5077254;28;20223;-74
2022/03/14 02:42:31;;;;;;;6.63;4.70;;;;;;;;;;5051834;28;20301;-74
2022/03/14 02:44:56;;;;;;;6.63;5.00;;;;;;;;;;5052977;28;20222;-74
2022/03/14 02:47:27;;;;;;;8.00;5.00;;;;;;;;;;5068849;28;20719;-73
2022/03/14 02:49:55;;;;;;;5.83;4.87;;;;;;;;;;5049043;28;20614;-75
2022/03/14 02:52:23;;;;;;;9.17;5.00;;;;;;;;;;5051331;28;20265;-75
2022/03/14 02:54:52;;;;;;;6.90;4.60;;;;;;;;;;5035885;28;20305;-74
2022/03/14 02:57:19;;;;;;;7.03;4.53;;;;;;;;;;5052410;28;20235;-74
2022/03/14 02:59:45;;;;;;;6.13;4.60;;;;;;;;;;5053308;28;20227;-74
2022/03/14 03:02:10;;;;;;;10.20;5.03;;;;;;;;;;5068794;28;20216;-75
2022/03/14 03:04:36;;;;;;;6.93;5.10;;;;;;;;;;5073214;28;20305;-74
2022/03/14 03:07:02;;;;;;;7.13;4.53;;;;;;;;;;5035374;28;20716;-74
2022/03/14 03:09:30;;;;;;;6.87;4.70;;;;;;;;;;5036629;28;20226;-75
2022/03/14 03:12:00;;;;;;;6.97;5.07;;;;;;;;;;5071587;28;20692;-75
2022/03/14 03:14:30;;;;;;;7.23;5.33;;;;;;;;;;5068591;28;20253;-74
2022/03/14 03:16:58;;;;;;;7.97;5.57;;;;;;;;;;5068705;28;20230;-73
2022/03/14 03:19:24;;;;;;;7.43;4.93;;;;;;;;;;5035073;28;20360;-74
2022/03/14 03:21:49;;;;;;;7.43;5.17;;;;;;;;;;5068071;28;20604;-75
2022/03/14 03:24:17;;;;;;;6.40;5.13;;;;;;;;;;5043929;28;20725;-75
2022/03/14 03:26:42;;;;;;;7.43;5.00;;;;;;;;;;5035556;28;20219;-74
2022/03/14 03:29:09;;;;;;;7.73;5.10;;;;;;;;;;5067902;28;20227;-74
2022/03/14 03:31:37;;;;;;;8.60;5.30;;;;;;;;;;5038877;28;20278;-74
2022/03/14 03:34:03;;;;;;;6.07;5.10;;;;;;;;;;5070088;28;20272;-75
2022/03/14 03:36:31;;;;;;;7.30;5.00;;;;;;;;;;5035210;28;20669;-74
2022/03/14 03:38:58;;;;;;;6.77;4.73;;;;;;;;;;5069341;28;20225;-74
2022/03/14 03:41:25;;;;;;;6.87;4.97;;;;;;;;;;5068677;28;20222;-75
2022/03/14 03:43:53;;;;;;;6.93;5.00;;;;;;;;;;5067586;28;20272;-74
2022/03/14 03:46:18;;;;;;;6.87;4.73;;;;;;;;;;5067507;28;20230;-76
2022/03/14 03:48:46;;;;;;;7.03;5.13;;;;;;;;;;5069105;28;20246;-73
2022/03/14 03:51:12;;;;;;;8.27;5.20;;;;;;;;;;5039762;28;20708;-74
2022/03/14 03:53:42;;;;;;;7.70;5.20;;;;;;;;;;5069719;28;20221;-74
2022/03/14 03:56:07;;;;;;;7.67;5.73;;;;;;;;;;5034913;28;20777;-75
2022/03/14 03:58:33;;;;;;;6.13;5.07;;;;;;;;;;5067402;28;20322;-74
2022/03/14 04:00:58;;;;;;;7.80;5.60;;;;;;;;;;5034510;28;20279;-75
2022/03/14 04:03:24;;;;;;;7.13;4.67;;;;;;;;;;5076484;28;20222;-75
2022/03/14 04:05:50;;;;;;;7.33;5.30;;;;;;;;;;5034202;28;21003;-74
2022/03/14 04:08:15;;;;;;;10.83;5.53;;;;;;;;;;5049647;28;20301;-74
2022/03/14 04:10:43;;;;;;;9.37;5.63;;;;;;;;;;5073990;28;20218;-73
2022/03/14 04:13:12;;;;;;;8.80;5.17;;;;;;;;;;5014201;28;20222;-74
2022/03/14 04:15:50;;;;;;;7.77;5.60;;;;;;;;;;5068605;28;20420;-74
2022/03/14 04:18:18;;;;;;;8.67;5.67;;;;;;;;;;5049141;28;20619;-75
2022/03/14 04:20:53;;;;;;;7.73;5.47;;;;;;;;;;5051123;28;20691;-79
2022/03/14 04:23:24;;;;;;;9.27;5.60;;;;;;;;;;5063008;28;20322;-72
2022/03/14 04:25:50;;;;;;;9.60;5.57;;;;;;;;;;5035342;28;20705;-74
2022/03/14 04:28:18;;;;;;;8.37;5.40;;;;;;;;;;5047096;28;20577;-74
2022/03/14 04:30:43;;;;;;;7.70;5.80;;;;;;;;;;5049060;28;20228;-73
2022/03/14 04:33:09;;;;;;;7.47;5.50;;;;;;;;;;5067822;28;20223;-73
2022/03/14 04:35:37;;;;;;;8.33;5.50;;;;;;;;;;5066807;28;20226;-74
2022/03/14 04:38:04;;;;;;;8.50;5.43;;;;;;;;;;5068035;28;20226;-73
2022/03/14 04:40:35;;;;;;;9.30;6.23;;;;;;;;;;5055387;28;20225;-74
2022/03/14 04:43:07;;;;;;;9.80;5.80;;;;;;;;;;5050138;28;20230;-73
2022/03/14 04:45:35;;;;;;;9.43;5.93;;;;;;;;;;5065002;28;20249;-75
2022/03/14 04:48:06;;;;;;;9.53;6.70;;;;;;;;;;5047366;28;20231;-75
2022/03/14 04:50:36;;;;;;;9.53;6.37;;;;;;;;;;5065411;28;20691;-74
2022/03/14 04:53:02;;;;;;;9.00;6.10;;;;;;;;;;5067105;28;20226;-74
2022/03/14 04:55:30;;;;;;;9.27;6.10;;;;;;;;;;5068264;28;20719;-73
2022/03/14 04:57:55;;;;;;;9.23;6.07;;;;;;;;;;5072361;28;20223;-74
2022/03/14 05:00:24;;;;;;;10.13;6.20;;;;;;;;;;5053229;28;20635;-75
2022/03/14 05:02:50;;;;;;;10.63;6.37;;;;;;;;;;5042057;28;20231;-75
2022/03/14 05:05:18;;;;;;;7.90;5.60;;;;;;;;;;5070562;28;20340;-74
2022/03/14 05:07:44;;;;;;;9.27;5.97;;;;;;;;;;5052033;28;20231;-74
2022/03/14 05:10:10;;;;;;;7.47;5.60;;;;;;;;;;5064819;28;20571;-74
2022/03/14 05:12:36;;;;;;;7.57;5.90;;;;;;;;;;5055305;28;20258;-75
2022/03/14 05:15:02;;;;;;;9.80;6.03;;;;;;;;;;5054112;28;20227;-74
2022/03/14 05:17:30;;;;;;;9.63;6.13;;;;;;;;;;5071222;28;20325;-75
2022/03/14 05:19:58;;;;;;;7.47;6.03;;;;;;;;;;5038966;28;20207;-75
2022/03/14 05:22:23;;;;;;;9.07;6.17;;;;;;;;;;5070890;28;20225;-75
2022/03/14 05:24:49;;;;;;;8.57;6.17;;;;;;;;;;5072828;28;20210;-74
2022/03/14 05:27:17;;;;;;;8.83;6.00;;;;;;;;;;5054528;28;20712;-75
2022/03/14 05:29:43;;;;;;;9.87;6.63;;;;;;;;;;5070989;28;20235;-74
2022/03/14 05:32:08;;;;;;;7.73;6.00;;;;;;;;;;5056284;28;20221;-74
2022/03/14 05:34:35;;;;;;;7.90;5.70;;;;;;;;;;5078021;28;20234;-75
2022/03/14 05:37:01;;;;;;;7.73;6.10;;;;;;;;;;5071080;28;20219;-74
2022/03/14 05:39:27;;;;;;;7.77;5.83;;;;;;;;;;5060409;28;20221;-75
2022/03/14 05:41:55;;;;;;;9.40;6.47;;;;;;;;;;5020980;28;20593;-75
2022/03/14 05:44:25;;;;;;;10.50;6.30;;;;;;;;;;5035791;28;20215;-73
2022/03/14 05:46:52;;;;;;;8.73;6.17;;;;;;;;;;5038555;28;20238;-75
2022/03/14 05:49:17;;;;;;;9.50;6.03;;;;;;;;;;5070788;28;20234;-76
2022/03/14 05:51:43;;;;;;;8.13;6.07;;;;;;;;;;5072038;28;20222;-75
2022/03/14 05:54:09;;;;;;;8.00;6.20;;;;;;;;;;5070027;28;20317;-75
2022/03/14 05:56:37;;;;;;;7.30;5.70;;;;;;;;;;5054628;28;20230;-74
2022/03/14 05:59:09;;;;;;;8.40;6.47;;;;;;;;;;5054102;28;20238;-74
2022/03/14 06:01:38;;;;;;;8.80;6.20;;;;;;;;;;5039741;28;20230;-75
2022/03/14 06:04:03;;;;;;;8.63;6.20;;;;;;;;;;5068826;28;20222;-73
2022/03/14 06:06:29;;;;;;;9.97;6.17;;;;;;;;;;5070783;28;20594;-74
2022/03/14 06:08:55;;;;;;;8.43;6.40;;;;;;;;;;5078525;28;20637;-73
2022/03/14 06:11:24;;;;;;;10.20;6.10;;;;;;;;;;5052703;28;20661;-74
2022/03/14 06:13:52;;;;;;;8.83;6.40;;;;;;;;;;5053903;28;20245;-75
2022/03/14 06:16:18;;;;;;;8.17;6.13;;;;;;;;;;5070319;28;20218;-74
2022/03/14 06:18:44;;;;;;;8.33;6.13;;;;;;;;;;5066878;28;20263;-75
2022/03/14 06:21:09;;;;;;;7.90;6.00;;;;;;;;;;5045605;28;20223;-74
2022/03/14 06:23:36;;;;;;;8.77;6.57;;;;;;;;;;5054302;28;20226;-76
2022/03/14 06:26:01;;;;;;;10.73;6.83;;;;;;;;;;5071066;28;20306;-74
2022/03/14 06:28:27;;;;;;;8.00;6.20;;;;;;;;;;5070555;28;20287;-74
2022/03/14 06:30:54;;;;;;;7.43;6.27;;;;;;;;;;5072033;28;20206;-75
2022/03/14 06:33:19;;;;;;;9.80;6.07;;;;;;;;;;5081584;28;20271;-74
2022/03/14 06:35:47;;;;;;;10.20;6.63;;;;;;;;;;5069123;28;20288;-75
2022/03/14 06:38:12;;;;;;;10.80;6.13;;;;;;;;;;5073680;28;20222;-75
2022/03/14 06:40:42;;;;;;;10.47;6.57;;;;;;;;;;5070573;28;20223;-74
2022/03/14 06:43:10;;;;;;;8.87;5.70;;;;;;;;;;5085815;28;20234;-74
2022/03/14 06:45:38;;;;;;;8.07;5.90;;;;;;;;;;5064817;28;20227;-75
2022/03/14 06:48:05;;;;;;;7.70;5.93;;;;;;;;;;5065010;28;20227;-74
2022/03/14 06:50:31;;;;;;;10.57;6.10;;;;;;;;;;5083935;28;20313;-74
2022/03/14 06:53:02;;;;;;;8.37;5.77;;;;;;;;;;5065951;28;20223;-74
2022/03/14 06:55:28;;;;;;;10.20;6.17;;;;;;;;;;5054872;28;20231;-75
2022/03/14 06:57:54;;;;;;;7.60;5.90;;;;;;;;;;5047392;28;20238;-74
2022/03/14 07:00:22;;;;;;;8.97;6.53;;;;;;;;;;5079005;28;20268;-74
2022/03/14 07:02:49;;;;;;;8.23;5.97;;;;;;;;;;5077147;28;20223;-75
2022/03/14 07:05:26;;;;;;;8.73;5.97;;;;;;;;;;5044724;28;20365;-74
2022/03/14 07:08:00;;;;;;;8.57;6.03;;;;;;;;;;5022806;28;20228;-73
2022/03/14 07:10:26;;;;;;;9.63;6.20;;;;;;;;;;5054999;28;20258;-73
2022/03/14 07:12:51;;;;;;;11.23;6.50;;;;;;;;;;5072839;28;20344;-75
2022/03/14 07:15:25;;;;;;;7.53;5.77;;;;;;;;;;5071709;28;20736;-75
2022/03/14 07:17:51;;;;;;;7.97;6.10;;;;;;;;;;5024325;28;20233;-75
2022/03/14 07:20:19;;;;;;;9.10;6.10;;;;;;;;;;5069831;28;20642;-75
2022/03/14 07:23:01;;;;;;;9.00;6.10;;;;;;;;;;5053323;28;20330;-74
2022/03/14 07:25:29;;;;;;;7.87;5.93;;;;;;;;;;5051717;28;20599;-75
2022/03/14 07:27:58;;;;;;;8.53;6.60;;;;;;;;;;5049052;28;20223;-75
2022/03/14 07:30:23;;;;;;;7.00;5.73;;;;;;;;;;5051975;28;20214;-75
2022/03/14 07:32:49;;;;;;;8.30;6.23;;;;;;;;;;5037075;28;20227;-74
2022/03/14 07:35:15;;;;;;;7.30;5.80;;;;;;;;;;5068223;28;20215;-74
2022/03/14 07:37:40;;;;;;;9.00;5.40;;;;;;;;;;5050063;28;20223;-74
2022/03/14 07:40:08;;;;;;;8.77;5.97;;;;;;;;;;5037254;28;20211;-75
2022/03/14 07:42:41;;;;;;;7.97;6.00;;;;;;;;;;5051383;28;20251;-74
2022/03/14 07:45:09;;;;;;;7.77;5.63;;;;;;;;;;5050725;28;20231;-74
2022/03/14 07:47:37;;;;;;;7.93;6.00;;;;;;;;;;5067682;28;20708;-74
2022/03/14 07:50:05;;;;;;;8.83;6.20;;;;;;;;;;5067342;28;20256;-74
2022/03/14 07:52:33;;;;;;;8.00;6.63;;;;;;;;;;5062764;28;20219;-74
2022/03/14 07:54:59;;;;;;;9.70;6.10;;;;;;;;;;5034162;28;20233;-75
2022/03/14 07:57:25;;;;;;;8.43;6.47;;;;;;;;;;5051548;28;20234;-74
2022/03/14 07:59:51;;;;;;;8.07;6.30;;;;;;;;;;5070196;28;20622;-74
2022/03/14 08:02:20;;;;;;;9.17;6.47;;;;;;;;;;5050055;28;20214;-74
2022/03/14 08:04:51;;;;;;;7.17;5.97;;;;;;;;;;5067279;28;20222;-75
2022/03/14 08:07:22;;;;;;;7.83;6.70;;;;;;;;;;5036703;28;20214;-74
2022/03/14 08:09:53;;;;;;;8.93;6.33;;;;;;;;;;5072405;28;20219;-75
2022/03/14 08:12:20;;;;;;;7.63;5.87;;;;;;;;;;5065831;28;20255;-75
2022/03/14 08:14:51;;;;;;;8.13;6.23;;;;;;;;;;5066731;28;20233;-75
2022/03/14 08:17:18;;;;;;;8.80;6.57;;;;;;;;;;5071203;28;20214;-75
2022/03/14 08:19:44;;;;;;;10.07;6.50;;;;;;;;;;5070616;28;20233;-76
2022/03/14 08:22:10;;;;;;;8.77;6.50;;;;;;;;;;5036635;28;20225;-76
2022/03/14 08:24:36;;;;;;;11.13;7.23;;;;;;;;;;5043453;28;20223;-75
2022/03/14 08:27:03;;;;;;;9.07;6.80;;;;;;;;;;5067400;28;20324;-75
2022/03/14 08:29:31;;;;;;;9.73;6.77;;;;;;;;;;5084236;28;20238;-75
2022/03/14 08:32:00;;;;;;;8.40;6.37;;;;;;;;;;5064239;28;20282;-77
2022/03/14 08:34:26;;;;;;;8.37;6.20;;;;;;;;;;5079582;28;20290;-76
2022/03/14 08:36:54;;;;;;;7.87;6.50;;;;;;;;;;5076904;28;20318;-76
2022/03/14 08:39:20;;;;;;;8.57;6.67;;;;;;;;;;5055675;28;20222;-75
2022/03/14 08:41:45;;;;;;;7.63;6.63;;;;;;;;;;5047521;28;20218;-75
2022/03/14 08:44:11;;;;;;;9.67;6.70;;;;;;;;;;5071382;28;20988;-75
2022/03/14 08:46:38;;;;;;;9.17;7.10;;;;;;;;;;5073266;28;20251;-76
2022/03/14 08:49:03;;;;;;;8.97;7.07;;;;;;;;;;5071460;28;20226;-75
2022/03/14 08:51:29;;;;;;;8.10;6.93;;;;;;;;;;5054486;28;20233;-74
2022/03/14 08:53:54;;;;;;;9.80;7.20;;;;;;;;;;5044803;28;20241;-74
2022/03/14 08:56:21;;;;;;;8.77;6.80;;;;;;;;;;5038395;28;20226;-75
2022/03/14 08:58:49;;;;;;;8.10;6.40;;;;;;;;;;5055166;28;20249;-74
2022/03/14 09:01:19;;;;;;;8.30;6.67;;;;;;;;;;5069429;28;20218;-74
2022/03/14 09:03:49;;;;;;;8.40;6.67;;;;;;;;;;5055526;28;20218;-75
2022/03/14 09:06:15;;;;;;;11.83;6.97;;;;;;;;;;5041836;28;20226;-76
2022/03/14 09:08:43;;;;;;;8.53;7.00;;;;;;;;;;5054619;28;20264;-74
2022/03/14 09:11:09;;;;;;;9.90;6.90;;;;;;;;;;5070595;28;20256;-75
2022/03/14 09:13:38;;;;;;;8.63;6.80;;;;;;;;;;5072750;28;20219;-75
2022/03/14 09:16:05;;;;;;;10.80;7.00;;;;;;;;;;5071468;28;20722;-74
2022/03/14 09:18:31;;;;;;;8.10;7.00;;;;;;;;;;5056223;28;20231;-75
2022/03/14 09:20:57;;;;;;;10.17;6.80;;;;;;;;;;5040187;28;20224;-75
2022/03/14 09:23:24;;;;;;;9.57;6.87;;;;;;;;;;5056555;28;20227;-75
2022/03/14 09:25:51;;;;;;;8.60;6.87;;;;;;;;;;5074129;28;20222;-75
2022/03/14 09:28:17;;;;;;;9.90;6.93;;;;;;;;;;5056205;28;20261;-74
2022/03/14 09:30:46;;;;;;;9.77;7.17;;;;;;;;;;5056553;28;20325;-76
2022/03/14 09:33:11;;;;;;;9.03;6.83;;;;;;;;;;5072945;28;20225;-74
2022/03/14 09:35:39;;;;;;;9.70;6.97;;;;;;;;;;5054497;28;20219;-75
2022/03/14 09:38:05;;;;;;;8.77;7.03;;;;;;;;;;5077868;28;20222;-74
2022/03/14 09:40:31;;;;;;;10.67;6.93;;;;;;;;;;5074172;28;20704;-75
2022/03/14 09:42:59;;;;;;;9.97;7.83;;;;;;;;;;5074507;28;20222;-74
2022/03/14 09:45:27;;;;;;;8.27;7.13;;;;;;;;;;5049383;28;20234;-76
2022/03/14 09:47:58;;;;;;;9.20;7.10;;;;;;;;;;5074795;28;20306;-75
2022/03/14 09:50:30;;;;;;;9.70;7.70;;;;;;;;;;5058546;28;20219;-75
2022/03/14 09:52:56;;;;;;;8.07;7.07;;;;;;;;;;5079525;28;20291;-75
2022/03/14 09:55:22;;;;;;;9.73;7.17;;;;;;;;;;5073872;28;20222;-74
2022/03/14 09:57:48;;;;;;;9.47;7.37;;;;;;;;;;5085244;28;20226;-75
2022/03/14 10:00:15;;;;;;;11.07;7.47;;;;;;;;;;5083647;28;20218;-75
2022/03/14 10:02:44;;;;;;;8.47;6.67;;;;;;;;;;5085038;28;20234;-76
2022/03/14 10:05:13;;;;;;;9.33;7.23;;;;;;;;;;5065202;28;20215;-76
2022/03/14 10:07:40;;;;;;;8.60;7.70;;;;;;;;;;5022508;28;20227;-75
2022/03/14 10:10:07;;;;;;;11.10;8.13;;;;;;;;;;5038060;28;20245;-75
2022/03/14 10:12:33;;;;;;;9.97;8.67;;;;;;;;;;5071854;28;20226;-75
2022/03/14 10:15:03;;;;;;;12.07;8.53;;;;;;;;;;5071176;28;20218;-75
2022/03/14 10:17:32;;;;;;;9.83;8.67;;;;;;;;;;5055952;28;20329;-75
2022/03/14 10:19:59;;;;;;;11.30;9.43;;;;;;;;;;5021486;28;20214;-75
2022/03/14 10:22:32;;;;;;;13.20;9.47;;;;;;;;;;5056843;28;20222;-75
2022/03/14 10:25:09;;;;;;;11.30;10.13;;;;;;;;;;5040971;28;20234;-76
2022/03/14 10:27:38;;;;;;;10.57;9.47;;;;;;;;;;5025837;28;20226;-75
2022/03/14 10:30:07;;;;;;;11.20;10.10;;;;;;;;;;5070129;28;20267;-75
2022/03/14 10:32:36;;;;;;;11.40;9.47;;;;;;;;;;5053368;28;20234;-76
2022/03/14 10:35:07;;;;;;;10.40;9.30;;;;;;;;;;5040240;28;20234;-75
2022/03/14 10:37:36;;;;;;;11.57;10.40;;;;;;;;;;5052691;28;20226;-75
2022/03/14 10:40:06;;;;;;;11.90;10.70;;;;;;;;;;5068701;28;20223;-75
2022/03/14 10:42:39;;;;;;;10.67;9.63;;;;;;;;;;5051998;28;21349;-75
2022/03/14 10:45:20;;;;;;;10.07;9.17;;;;;;;;;;5053702;28;20271;-75
2022/03/14 10:47:46;;;;;;;10.00;9.10;;;;;;;;;;5054747;28;20246;-75
2022/03/14 10:50:31;;;;;;;9.67;8.77;;;;;;;;;;5036653;28;20218;-75
2022/03/14 10:53:07;;;;;;;10.03;8.93;;;;;;;;;;5058082;28;20229;-75
2022/03/14 10:55:45;;;;;;;9.77;8.90;;;;;;;;;;5070273;28;20246;-76
2022/03/14 10:58:12;;;;;;;10.00;9.10;;;;;;;;;;5070140;28;20231;-76
2022/03/14 11:00:49;;;;;;;9.67;8.67;;;;;;;;;;5037610;28;20250;-74
2022/03/14 11:03:24;;;;;;;10.83;9.73;;;;;;;;;;5046797;28;20268;-77
2022/03/14 11:05:52;;;;;;;10.63;9.63;;;;;;;;;;5071672;28;20222;-75
2022/03/14 11:08:28;;;;;;;10.10;9.13;;;;;;;;;;5018682;28;20233;-75
2022/03/14 11:10:54;;;;;;;10.60;9.50;;;;;;;;;;5054741;28;20577;-76
2022/03/14 11:13:20;;;;;;;9.87;9.03;;;;;;;;;;5036712;28;20344;-76
2022/03/14 11:15:46;;;;;;;10.83;9.70;;;;;;;;;;5056540;28;20636;-76
2022/03/14 11:18:12;;;;;;;10.37;9.37;;;;;;;;;;5024813;28;20265;-75
2022/03/14 11:20:37;;;;;;;9.63;8.73;;;;;;;;;;5053028;28;20762;-75
2022/03/14 11:23:04;;;;;;;9.97;9.00;;;;;;;;;;5057427;28;20220;-74
2022/03/14 11:25:30;;;;;;;9.17;8.27;;;;;;;;;;5070198;28;20700;-76
2022/03/14 11:27:58;;;;;;;9.47;8.57;;;;;;;;;;5037248;28;20234;-75
2022/03/14 11:30:29;;;;;;;9.30;8.40;;;;;;;;;;5037253;28;20222;-75
2022/03/14 11:32:57;;;;;;;8.97;8.07;;;;;;;;;;5053807;28;20278;-75
2022/03/14 11:35:22;;;;;;;9.97;9.03;;;;;;;;;;5037100;28;20941;-75
2022/03/14 11:37:50;;;;;;;9.93;8.93;;;;;;;;;;5033485;28;20226;-75
2022/03/14 11:40:20;;;;;;;9.00;8.10;;;;;;;;;;5030435;28;20206;-75
2022/03/14 11:42:46;;;;;;;9.00;8.20;;;;;;;;;;5052125;28;20223;-73
2022/03/14 11:45:11;;;;;;;8.87;8.03;;;;;;;;;;5068786;28;20313;-74
2022/03/14 11:47:37;;;;;;;9.13;8.33;;;;;;;;;;5075866;28;20254;-76
2022/03/14 11:50:03;;;;;;;9.33;8.43;;;;;;;;;;5051268;28;20229;-76
2022/03/14 11:52:40;;;;;;;9.00;8.17;;;;;;;;;;5051172;28;20333;-75
2022/03/14 11:55:29;;;;;;;9.17;8.30;;;;;;;;;;5022084;28;20233;-73
2022/03/14 11:58:00;;;;;;;9.77;8.13;;;;;;;;;;5050292;28;20245;-75
2022/03/14 12:00:27;;;;;;;8.33;7.53;;;;;;;;;;5049956;28;20223;-76
2022/03/14 12:02:54;;;;;;;9.03;8.10;;;;;;;;;;5070609;28;20254;-75
2022/03/14 12:05:31;;;;;;;8.83;7.93;;;;;;;;;;5070345;28;20226;-74
2022/03/14 12:08:01;;;;;;;8.90;8.00;;;;;;;;;;5069752;28;20237;-76
2022/03/14 12:10:28;;;;;;;8.00;7.20;;;;;;;;;;5069333;28;20249;-75
2022/03/14 12:12:54;;;;;;;7.97;7.17;;;;;;;;;;5062865;28;20295;-74
2022/03/14 12:15:41;;;;;;;8.73;7.93;;;;;;;;;;5073788;28;20234;-74
2022/03/14 12:18:27;;;;;;;8.77;7.87;;;;;;;;;;5070630;28;20226;-75
2022/03/14 12:20:59;;;;;;;8.40;7.60;;;;;;;;;;5065173;28;20675;-75
2022/03/14 12:23:33;;;;;;;7.63;6.93;;;;;;;;;;5038098;28;20756;-76
2022/03/14 12:26:23;;;;;;;8.43;7.63;;;;;;;;;;5055370;28;20225;-74
2022/03/14 12:28:49;;;;;;;8.37;7.57;;;;;;;;;;5035206;28;20222;-76
2022/03/14 12:31:16;;;;;;;8.70;7.80;;;;;;;;;;5070191;28;20634;-73
2022/03/14 12:33:45;;;;;;;9.27;8.40;;;;;;;;;;5061362;28;20322;-74
2022/03/14 12:36:24;;;;;;;8.57;7.77;;;;;;;;;;5065843;28;20234;-75
2022/03/14 12:39:05;;;;;;;16.33;13.00;;;;;;;;;;5068956;28;20282;-75
2022/03/14 12:41:33;;;;;;;32.40;23.47;;;;;;;;;;5069038;28;20230;-74
2022/03/14 12:43:59;;;;;;;11.00;9.83;;;;;;;;;;5052486;28;20218;-74
2022/03/14 12:46:28;;;;;;;10.47;8.70;;;;;;;;;;5055553;28;20248;-74
2022/03/14 12:48:55;;;;;;;8.60;7.80;;;;;;;;;;5052707;28;20244;-75
2022/03/14 12:51:26;;;;;;;6.90;6.30;;;;;;;;;;5023757;28;20218;-74
2022/03/14 12:54:01;;;;;;;6.33;5.70;;;;;;;;;;5074422;28;20631;-74
2022/03/14 12:56:28;;;;;;;6.00;5.50;;;;;;;;;;5046000;28;20223;-74
2022/03/14 12:58:58;;;;;;;6.00;5.50;;;;;;;;;;5036936;28;20223;-74
2022/03/14 13:01:26;;;;;;;6.90;6.30;;;;;;;;;;5047782;28;20594;-73
2022/03/14 13:03:54;;;;;;;7.37;6.30;;;;;;;;;;5065469;28;20669;-75
2022/03/14 13:06:35;;;;;;;7.57;6.77;;;;;;;;;;5067704;28;20221;-73
2022/03/14 13:09:03;;;;;;;7.17;6.43;;;;;;;;;;5048738;28;20233;-75
2022/03/14 13:11:38;;;;;;;8.50;7.70;;;;;;;;;;5070730;28;20215;-74
2022/03/14 13:14:12;;;;;;;8.43;7.50;;;;;;;;;;5027078;28;20783;-74
2022/03/14 13:16:41;;;;;;;7.73;7.03;;;;;;;;;;5053789;28;20227;-74
2022/03/14 13:19:15;;;;;;;7.40;6.77;;;;;;;;;;5060328;28;20222;-75
2022/03/14 13:21:43;;;;;;;8.60;7.80;;;;;;;;;;5024307;28;20291;-74
2022/03/14 13:24:11;;;;;;;8.87;7.97;;;;;;;;;;5076691;28;20223;-74
2022/03/14 13:26:40;;;;;;;8.83;8.03;;;;;;;;;;5050786;28;20646;-75
2022/03/14 13:29:08;;;;;;;8.90;8.10;;;;;;;;;;5056258;28;20596;-75
2022/03/14 13:31:38;;;;;;;10.50;9.53;;;;;;;;;;5066710;28;21784;-74
2022/03/14 13:34:07;;;;;;;10.40;9.40;;;;;;;;;;5070212;28;20222;-74
2022/03/14 13:36:38;;;;;;;10.37;9.37;;;;;;;;;;5071547;28;20233;-73
2022/03/14 13:39:05;;;;;;;10.47;9.47;;;;;;;;;;5037543;28;20230;-74
2022/03/14 13:41:33;;;;;;;12.57;11.37;;;;;;;;;;5037935;28;20223;-74
2022/03/14 13:44:00;;;;;;;10.67;9.67;;;;;;;;;;5054869;28;20211;-75
2022/03/14 13:46:39;;;;;;;10.90;9.90;;;;;;;;;;5039271;28;20233;-75
2022/03/14 13:49:04;;;;;;;11.60;10.40;;;;;;;;;;5066313;28;20696;-73
2022/03/14 13:51:31;;;;;;;12.40;10.90;;;;;;;;;;5074581;28;20222;-75
2022/03/14 13:54:04;;;;;;;14.03;12.63;;;;;;;;;;5056958;28;20621;-75
2022/03/14 13:56:34;;;;;;;13.53;12.23;;;;;;;;;;5056853;28;20226;-77
2022/03/14 13:59:03;;;;;;;13.53;12.13;;;;;;;;;;5054157;28;20608;-75
2022/03/14 14:01:44;;;;;;;10.60;9.70;;;;;;;;;;5071045;28;20218;-75
2022/03/14 14:04:23;;;;;;;10.37;9.47;;;;;;;;;;5048995;28;20214;-75
2022/03/14 14:06:52;;;;;;;9.30;8.50;;;;;;;;;;5070683;28;20313;-74
2022/03/14 14:09:27;;;;;;;9.53;8.67;;;;;;;;;;5049753;28;20215;-75
2022/03/14 14:11:57;;;;;;;9.60;8.80;;;;;;;;;;5035037;28;20501;-75
2022/03/14 14:14:26;;;;;;;10.00;9.10;;;;;;;;;;5070117;28;20243;-74
2022/03/14 14:16:52;;;;;;;10.97;9.87;;;;;;;;;;5038090;28;20242;-75
2022/03/14 14:19:25;;;;;;;10.90;9.80;;;;;;;;;;5072071;28;20234;-75
2022/03/14 14:21:56;;;;;;;10.43;9.60;;;;;;;;;;5063046;28;20233;-74
2022/03/14 14:24:23;;;;;;;10.93;9.93;;;;;;;;;;5074739;28;20222;-75
2022/03/14 14:26:55;;;;;;;11.53;10.37;;;;;;;;;;5084047;28;20536;-76
2022/03/14 14:29:43;;;;;;;11.07;10.07;;;;;;;;;;5066853;28;20268;-74
2022/03/14 14:32:18;;;;;;;10.23;9.33;;;;;;;;;;5084411;28;20245;-76
2022/03/14 14:34:50;;;;;;;10.37;9.37;;;;;;;;;;5082453;28;20245;-75
2022/03/14 14:37:18;;;;;;;9.53;8.70;;;;;;;;;;5071197;28;20762;-74
2022/03/14 14:39:44;;;;;;;10.10;9.20;;;;;;;;;;5038722;28;20230;-75
2022/03/14 14:42:13;;;;;;;10.67;9.57;;;;;;;;;;5070169;28;20628;-75
2022/03/14 14:44:39;;;;;;;10.67;9.67;;;;;;;;;;5054717;28;20226;-75
2022/03/14 14:47:05;;;;;;;10.83;9.83;;;;;;;;;;5074804;28;20226;-75